LST weather

Launceston Airport
Launceston, Tasmania, Australia

Public forecast

Using degrees Celsius for public forecast. Weather courtesy of forecast.io.

METAR (pilot weather report)

Retrieved 2017/05/28 06:30 UTC (0 seconds ago):

YMLT 280630Z AUTO 35006KT 9999 // SCT044 OVC056 10/07 Q1001

TAF (pilot weather forecast)

Retrieved 2017/05/28 06:36 UTC (0 seconds ago):

TAF YMLT 280518Z 2806/2906 33008KT 9999 -SHRA SCT020 SCT040 FM280800 VRB03KT 9999 FEW025 FM281600 34006KT 9999 SCT040 PROB30 2812/2823 0500 FG